sensor_id;sensor_type;location;lat;lon;timestamp;pressure;altitude;pressure_sealevel;temperature;humidity
36932;BME280;22847;42.654;23.370;2023-02-12T00:00:35;95589.50;;;4.60;35.96
36932;BME280;22847;42.654;23.370;2023-02-12T00:03:00;95642.91;;;4.60;35.99
36932;BME280;22847;42.654;23.370;2023-02-12T00:05:25;95514.72;;;4.13;36.31
36932;BME280;22847;42.654;23.370;2023-02-12T00:07:52;95502.19;;;3.91;35.83
36932;BME280;22847;42.654;23.370;2023-02-12T00:10:17;95591.91;;;3.86;35.86
36932;BME280;22847;42.654;23.370;2023-02-12T00:12:43;95356.47;;;2.90;36.04
36932;BME280;22847;42.654;23.370;2023-02-12T00:15:08;95611.19;;;4.42;36.47
36932;BME280;22847;42.654;23.370;2023-02-12T00:17:34;95530.56;;;3.76;36.21
36932;BME280;22847;42.654;23.370;2023-02-12T00:19:59;95548.94;;;4.01;35.92
36932;BME280;22847;42.654;23.370;2023-02-12T00:22:24;95556.66;;;4.01;36.93
36932;BME280;22847;42.654;23.370;2023-02-12T00:24:50;95397.56;;;3.40;35.91
36932;BME280;22847;42.654;23.370;2023-02-12T00:27:15;95584.06;;;4.35;35.88
36932;BME280;22847;42.654;23.370;2023-02-12T00:29:41;95630.09;;;4.42;35.92
36932;BME280;22847;42.654;23.370;2023-02-12T00:32:06;95588.09;;;4.70;36.44
36932;BME280;22847;42.654;23.370;2023-02-12T00:34:32;95595.09;;;4.68;35.44
36932;BME280;22847;42.654;23.370;2023-02-12T00:36:57;95584.19;;;4.63;36.33
36932;BME280;22847;42.654;23.370;2023-02-12T00:39:23;95571.16;;;4.80;36.23
36932;BME280;22847;42.654;23.370;2023-02-12T00:41:48;95325.38;;;3.25;35.24
36932;BME280;22847;42.654;23.370;2023-02-12T00:44:13;95412.94;;;3.73;35.68
36932;BME280;22847;42.654;23.370;2023-02-12T00:46:39;95456.16;;;3.99;36.52
36932;BME280;22847;42.654;23.370;2023-02-12T00:49:04;95338.03;;;3.29;35.29
36932;BME280;22847;42.654;23.370;2023-02-12T00:51:29;95537.19;;;4.72;34.90
36932;BME280;22847;42.654;23.370;2023-02-12T00:53:55;95375.66;;;3.63;35.04
36932;BME280;22847;42.654;23.370;2023-02-12T00:56:20;95539.66;;;4.74;35.10
36932;BME280;22847;42.654;23.370;2023-02-12T00:58:46;95562.53;;;5.10;34.55
36932;BME280;22847;42.654;23.370;2023-02-12T01:01:11;95274.34;;;3.31;34.66
36932;BME280;22847;42.654;23.370;2023-02-12T01:03:36;95293.19;;;3.47;34.45
36932;BME280;22847;42.654;23.370;2023-02-12T01:06:03;95573.25;;;5.04;34.60
36932;BME280;22847;42.654;23.370;2023-02-12T01:08:30;95531.56;;;4.80;34.45
36932;BME280;22847;42.654;23.370;2023-02-12T01:11:00;95495.16;;;4.55;34.95
36932;BME280;22847;42.654;23.370;2023-02-12T01:13:27;95554.34;;;4.87;34.87
36932;BME280;22847;42.654;23.370;2023-02-12T01:16:16;95287.63;;;3.39;34.81
36932;BME280;22847;42.654;23.370;2023-02-12T01:18:42;95553.19;;;4.63;35.14
36932;BME280;22847;42.654;23.370;2023-02-12T01:23:34;95516.41;;;4.74;34.89
36932;BME280;22847;42.654;23.370;2023-02-12T01:26:00;95572.50;;;4.72;35.04
36932;BME280;22847;42.654;23.370;2023-02-12T01:28:25;95594.19;;;4.99;35.09
36932;BME280;22847;42.654;23.370;2023-02-12T01:30:50;95517.88;;;4.64;35.11
36932;BME280;22847;42.654;23.370;2023-02-12T01:33:16;95469.56;;;4.36;35.22
36932;BME280;22847;42.654;23.370;2023-02-12T01:35:41;95586.59;;;4.96;35.30
36932;BME280;22847;42.654;23.370;2023-02-12T01:38:07;95500.00;;;4.75;35.42
36932;BME280;22847;42.654;23.370;2023-02-12T01:40:32;95314.63;;;3.64;35.02
36932;BME280;22847;42.654;23.370;2023-02-12T01:43:00;95496.94;;;4.68;35.18
36932;BME280;22847;42.654;23.370;2023-02-12T01:48:00;95552.66;;;5.02;35.35
36932;BME280;22847;42.654;23.370;2023-02-12T01:50:26;95485.47;;;4.58;35.75
36932;BME280;22847;42.654;23.370;2023-02-12T01:52:55;95305.91;;;3.50;35.87
36932;BME280;22847;42.654;23.370;2023-02-12T01:55:21;95462.69;;;4.21;36.29
36932;BME280;22847;42.654;23.370;2023-02-12T01:57:47;95479.44;;;4.43;36.22
36932;BME280;22847;42.654;23.370;2023-02-12T02:00:19;95522.53;;;4.87;36.38
36932;BME280;22847;42.654;23.370;2023-02-12T02:02:48;95414.41;;;4.23;36.17
36932;BME280;22847;42.654;23.370;2023-02-12T02:08:01;95507.63;;;4.62;36.39
36932;BME280;22847;42.654;23.370;2023-02-12T02:10:28;95549.25;;;4.72;36.22
36932;BME280;22847;42.654;23.370;2023-02-12T02:12:54;95518.69;;;4.64;36.47
36932;BME280;22847;42.654;23.370;2023-02-12T02:15:41;95372.31;;;3.61;36.51
36932;BME280;22847;42.654;23.370;2023-02-12T02:18:16;95589.09;;;4.98;36.53
36932;BME280;22847;42.654;23.370;2023-02-12T02:23:55;95540.53;;;4.88;37.42
36932;BME280;22847;42.654;23.370;2023-02-12T02:26:45;95507.66;;;4.76;37.47
36932;BME280;22847;42.654;23.370;2023-02-12T02:32:16;95482.38;;;4.67;37.15
36932;BME280;22847;42.654;23.370;2023-02-12T02:34:48;95587.78;;;4.90;37.31
36932;BME280;22847;42.654;23.370;2023-02-12T02:37:18;95578.84;;;4.66;37.56
36932;BME280;22847;42.654;23.370;2023-02-12T02:39:51;95480.03;;;4.33;37.50
36932;BME280;22847;42.654;23.370;2023-02-12T02:44:57;95527.06;;;4.54;37.45
36932;BME280;22847;42.654;23.370;2023-02-12T02:47:31;95460.63;;;4.12;37.80
36932;BME280;22847;42.654;23.370;2023-02-12T02:50:03;95554.44;;;4.72;37.36
36932;BME280;22847;42.654;23.370;2023-02-12T02:52:37;95542.09;;;4.77;37.33
36932;BME280;22847;42.654;23.370;2023-02-12T02:55:08;95311.59;;;3.26;37.77
36932;BME280;22847;42.654;23.370;2023-02-12T02:57:40;95549.41;;;4.69;37.43
36932;BME280;22847;42.654;23.370;2023-02-12T03:00:12;95292.66;;;3.27;37.37
36932;BME280;22847;42.654;23.370;2023-02-12T03:02:42;95520.81;;;4.58;37.73
36932;BME280;22847;42.654;23.370;2023-02-12T03:05:18;95519.97;;;4.57;37.70
36932;BME280;22847;42.654;23.370;2023-02-12T03:07:56;95536.28;;;4.87;37.46
36932;BME280;22847;42.654;23.370;2023-02-12T03:10:28;95540.06;;;4.96;38.43
36932;BME280;22847;42.654;23.370;2023-02-12T03:13:14;95544.31;;;4.97;37.68
36932;BME280;22847;42.654;23.370;2023-02-12T03:16:02;95547.66;;;4.99;37.46
36932;BME280;22847;42.654;23.370;2023-02-12T03:18:43;95319.47;;;3.54;38.48
36932;BME280;22847;42.654;23.370;2023-02-12T03:21:18;95546.50;;;4.75;38.21
36932;BME280;22847;42.654;23.370;2023-02-12T03:24:06;95533.53;;;4.61;38.88
36932;BME280;22847;42.654;23.370;2023-02-12T03:26:41;95537.91;;;4.29;39.38
36932;BME280;22847;42.654;23.370;2023-02-12T03:29:08;95495.69;;;4.00;39.28
36932;BME280;22847;42.654;23.370;2023-02-12T03:39:48;95527.47;;;4.16;39.70
36932;BME280;22847;42.654;23.370;2023-02-12T03:42:31;95529.84;;;4.35;39.95
36932;BME280;22847;42.654;23.370;2023-02-12T03:45:37;95535.34;;;4.29;40.37
36932;BME280;22847;42.654;23.370;2023-02-12T03:48:05;95503.31;;;4.01;41.02
36932;BME280;22847;42.654;23.370;2023-02-12T03:50:48;95520.88;;;4.26;40.50
36932;BME280;22847;42.654;23.370;2023-02-12T03:53:17;95527.59;;;4.29;40.17
36932;BME280;22847;42.654;23.370;2023-02-12T03:55:45;95449.91;;;4.03;40.02
36932;BME280;22847;42.654;23.370;2023-02-12T03:58:15;95551.53;;;4.62;39.93
36932;BME280;22847;42.654;23.370;2023-02-12T04:00:43;95468.53;;;4.38;39.65
36932;BME280;22847;42.654;23.370;2023-02-12T04:03:08;95359.72;;;3.86;39.39
36932;BME280;22847;42.654;23.370;2023-02-12T04:05:33;95262.56;;;3.27;39.69
36932;BME280;22847;42.654;23.370;2023-02-12T04:07:59;95562.28;;;4.84;39.48
36932;BME280;22847;42.654;23.370;2023-02-12T04:13:17;95525.66;;;4.92;39.70
36932;BME280;22847;42.654;23.370;2023-02-12T04:18:47;95286.28;;;3.48;39.53
36932;BME280;22847;42.654;23.370;2023-02-12T04:31:49;95574.63;;;5.09;39.49
36932;BME280;22847;42.654;23.370;2023-02-12T04:34:29;95551.81;;;5.02;39.27
36932;BME280;22847;42.654;23.370;2023-02-12T04:39:26;95439.66;;;4.02;40.79
36932;BME280;22847;42.654;23.370;2023-02-12T04:41:53;95593.81;;;4.75;40.27
36932;BME280;22847;42.654;23.370;2023-02-12T04:44:23;95554.16;;;4.76;40.21
36932;BME280;22847;42.654;23.370;2023-02-12T04:46:49;95518.28;;;4.56;40.29
36932;BME280;22847;42.654;23.370;2023-02-12T04:49:17;95475.25;;;4.11;40.39
36932;BME280;22847;42.654;23.370;2023-02-12T04:51:42;95483.94;;;4.40;40.13
36932;BME280;22847;42.654;23.370;2023-02-12T04:54:08;95319.06;;;3.46;40.11
36932;BME280;22847;42.654;23.370;2023-02-12T04:56:33;95600.53;;;4.93;40.01
36932;BME280;22847;42.654;23.370;2023-02-12T04:58:59;95186.81;;;2.70;39.94
36932;BME280;22847;42.654;23.370;2023-02-12T05:01:24;95577.22;;;4.79;40.25
36932;BME280;22847;42.654;23.370;2023-02-12T05:03:53;95312.25;;;3.45;40.08
36932;BME280;22847;42.654;23.370;2023-02-12T05:06:18;95558.38;;;4.77;40.06
36932;BME280;22847;42.654;23.370;2023-02-12T05:08:43;95534.53;;;4.88;39.87
36932;BME280;22847;42.654;23.370;2023-02-12T05:11:10;95369.88;;;3.89;40.24
36932;BME280;22847;42.654;23.370;2023-02-12T05:13:36;95314.78;;;3.60;39.70
36932;BME280;22847;42.654;23.370;2023-02-12T05:16:06;95563.75;;;5.18;39.73
36932;BME280;22847;42.654;23.370;2023-02-12T05:18:33;95379.66;;;3.98;39.68
36932;BME280;22847;42.654;23.370;2023-02-12T05:21:01;95563.28;;;5.12;39.85
36932;BME280;22847;42.654;23.370;2023-02-12T05:23:29;95298.59;;;3.43;39.99
36932;BME280;22847;42.654;23.370;2023-02-12T05:25:58;95560.88;;;5.09;39.73
36932;BME280;22847;42.654;23.370;2023-02-12T05:28:24;95577.81;;;4.69;40.38
36932;BME280;22847;42.654;23.370;2023-02-12T05:30:49;95620.28;;;4.94;40.72
36932;BME280;22847;42.654;23.370;2023-02-12T05:33:14;95405.91;;;3.75;41.88
36932;BME280;22847;42.654;23.370;2023-02-12T05:35:40;95387.00;;;3.45;42.34
36932;BME280;22847;42.654;23.370;2023-02-12T05:38:05;95386.25;;;3.27;42.34
36932;BME280;22847;42.654;23.370;2023-02-12T05:40:31;95605.78;;;4.62;42.34
36932;BME280;22847;42.654;23.370;2023-02-12T05:42:56;95524.53;;;4.07;43.20
36932;BME280;22847;42.654;23.370;2023-02-12T05:45:21;95606.28;;;4.37;43.73
36932;BME280;22847;42.654;23.370;2023-02-12T05:47:55;95613.69;;;4.43;44.11
36932;BME280;22847;42.654;23.370;2023-02-12T05:50:20;95647.69;;;4.36;44.53
36932;BME280;22847;42.654;23.370;2023-02-12T05:52:46;95605.53;;;3.88;44.54
36932;BME280;22847;42.654;23.370;2023-02-12T05:55:11;95358.38;;;2.71;44.55
36932;BME280;22847;42.654;23.370;2023-02-12T05:57:37;95591.50;;;4.10;44.95
36932;BME280;22847;42.654;23.370;2023-02-12T06:00:04;95623.94;;;4.29;45.93
36932;BME280;22847;42.654;23.370;2023-02-12T06:02:29;95639.19;;;4.18;46.26
36932;BME280;22847;42.654;23.370;2023-02-12T06:04:55;95445.44;;;3.13;46.91
36932;BME280;22847;42.654;23.370;2023-02-12T06:07:20;95635.94;;;4.15;46.38
36932;BME280;22847;42.654;23.370;2023-02-12T06:09:47;95639.72;;;3.92;47.40
36932;BME280;22847;42.654;23.370;2023-02-12T06:12:14;95634.91;;;3.86;47.67
36932;BME280;22847;42.654;23.370;2023-02-12T06:14:40;95643.19;;;4.08;47.72
36932;BME280;22847;42.654;23.370;2023-02-12T06:17:05;95632.50;;;3.98;48.13
36932;BME280;22847;42.654;23.370;2023-02-12T06:19:31;95646.34;;;4.29;48.14
36932;BME280;22847;42.654;23.370;2023-02-12T06:21:56;95368.34;;;2.44;48.72
36932;BME280;22847;42.654;23.370;2023-02-12T06:24:22;95630.19;;;3.94;49.84
36932;BME280;22847;42.654;23.370;2023-02-12T06:26:49;95637.56;;;3.84;51.11
36932;BME280;22847;42.654;23.370;2023-02-12T06:29:15;95479.63;;;2.99;51.14
36932;BME280;22847;42.654;23.370;2023-02-12T06:31:41;95392.78;;;2.53;51.64
36932;BME280;22847;42.654;23.370;2023-02-12T06:34:08;95640.84;;;4.03;52.00
36932;BME280;22847;42.654;23.370;2023-02-12T06:36:39;95615.69;;;3.91;52.24
36932;BME280;22847;42.654;23.370;2023-02-12T06:39:05;95639.47;;;3.96;53.18
36932;BME280;22847;42.654;23.370;2023-02-12T06:41:31;95312.97;;;2.04;54.00
36932;BME280;22847;42.654;23.370;2023-02-12T06:43:57;95672.31;;;4.10;53.82
36932;BME280;22847;42.654;23.370;2023-02-12T06:46:23;95638.75;;;4.10;54.35
36932;BME280;22847;42.654;23.370;2023-02-12T06:48:52;95590.28;;;3.68;54.76
36932;BME280;22847;42.654;23.370;2023-02-12T06:51:18;95215.03;;;1.42;55.09
36932;BME280;22847;42.654;23.370;2023-02-12T06:53:46;95665.69;;;3.89;55.81
36932;BME280;22847;42.654;23.370;2023-02-12T06:56:12;95561.22;;;3.49;56.08
36932;BME280;22847;42.654;23.370;2023-02-12T06:58:39;95395.00;;;2.43;56.06
36932;BME280;22847;42.654;23.370;2023-02-12T07:01:25;95626.50;;;3.82;56.42
36932;BME280;22847;42.654;23.370;2023-02-12T07:03:54;95640.44;;;3.78;56.74
36932;BME280;22847;42.654;23.370;2023-02-12T07:06:20;95483.22;;;2.97;56.57
36932;BME280;22847;42.654;23.370;2023-02-12T07:08:46;95639.66;;;3.93;56.88
36932;BME280;22847;42.654;23.370;2023-02-12T07:11:12;95534.13;;;3.25;56.80
36932;BME280;22847;42.654;23.370;2023-02-12T07:13:40;95681.53;;;3.98;56.53
36932;BME280;22847;42.654;23.370;2023-02-12T07:16:11;95644.41;;;4.01;57.54
36932;BME280;22847;42.654;23.370;2023-02-12T07:18:36;95695.78;;;4.05;57.08
36932;BME280;22847;42.654;23.370;2023-02-12T07:21:04;95601.25;;;3.72;57.13
36932;BME280;22847;42.654;23.370;2023-02-12T07:23:30;95366.34;;;2.34;57.10
36932;BME280;22847;42.654;23.370;2023-02-12T07:26:05;95632.09;;;3.90;56.95
36932;BME280;22847;42.654;23.370;2023-02-12T07:28:31;95662.81;;;3.95;56.36
36932;BME280;22847;42.654;23.370;2023-02-12T07:31:15;95662.63;;;3.98;56.33
36932;BME280;22847;42.654;23.370;2023-02-12T07:33:41;95693.91;;;4.25;56.33
36932;BME280;22847;42.654;23.370;2023-02-12T07:36:10;95391.47;;;2.61;55.75
36932;BME280;22847;42.654;23.370;2023-02-12T07:38:36;95630.38;;;4.22;55.56
36932;BME280;22847;42.654;23.370;2023-02-12T07:41:15;95639.69;;;4.25;55.77
36932;BME280;22847;42.654;23.370;2023-02-12T07:43:42;95419.69;;;2.80;55.58
36932;BME280;22847;42.654;23.370;2023-02-12T07:46:16;95421.06;;;3.03;55.79
36932;BME280;22847;42.654;23.370;2023-02-12T07:48:43;95673.25;;;4.56;55.48
36932;BME280;22847;42.654;23.370;2023-02-12T07:51:10;95675.09;;;4.54;55.49
36932;BME280;22847;42.654;23.370;2023-02-12T07:53:37;95658.94;;;4.35;56.00
36932;BME280;22847;42.654;23.370;2023-02-12T07:56:14;95494.31;;;3.30;56.08
36932;BME280;22847;42.654;23.370;2023-02-12T07:58:42;95604.41;;;4.10;56.09
36932;BME280;22847;42.654;23.370;2023-02-12T08:03:37;95658.13;;;4.01;56.53
36932;BME280;22847;42.654;23.370;2023-02-12T08:06:31;95381.81;;;2.49;56.95
36932;BME280;22847;42.654;23.370;2023-02-12T08:08:57;95684.44;;;4.41;56.70
36932;BME280;22847;42.654;23.370;2023-02-12T08:11:24;95488.31;;;3.14;57.31
36932;BME280;22847;42.654;23.370;2023-02-12T08:13:50;95679.41;;;4.38;56.99
36932;BME280;22847;42.654;23.370;2023-02-12T08:16:18;95675.69;;;4.43;56.74
36932;BME280;22847;42.654;23.370;2023-02-12T08:18:44;95719.31;;;4.48;56.41
36932;BME280;22847;42.654;23.370;2023-02-12T08:21:13;95631.03;;;4.26;56.48
36932;BME280;22847;42.654;23.370;2023-02-12T08:23:39;95675.84;;;4.56;56.08
36932;BME280;22847;42.654;23.370;2023-02-12T08:26:19;95678.63;;;4.04;57.79
36932;BME280;22847;42.654;23.370;2023-02-12T08:28:46;95695.81;;;4.21;57.61
36932;BME280;22847;42.654;23.370;2023-02-12T08:31:15;95490.38;;;3.07;56.96
36932;BME280;22847;42.654;23.370;2023-02-12T08:33:43;95418.16;;;2.60;57.64
36932;BME280;22847;42.654;23.370;2023-02-12T08:36:12;95651.66;;;3.94;57.89
36932;BME280;22847;42.654;23.370;2023-02-12T08:38:39;95701.41;;;4.45;57.12
36932;BME280;22847;42.654;23.370;2023-02-12T08:41:07;95656.00;;;4.10;57.27
36932;BME280;22847;42.654;23.370;2023-02-12T08:43:33;95454.16;;;2.78;57.46
36932;BME280;22847;42.654;23.370;2023-02-12T08:46:13;95707.44;;;4.45;57.48
36932;BME280;22847;42.654;23.370;2023-02-12T08:48:40;95489.16;;;3.14;57.10
36932;BME280;22847;42.654;23.370;2023-02-12T08:51:15;95714.66;;;4.39;57.89
36932;BME280;22847;42.654;23.370;2023-02-12T08:53:42;95701.91;;;4.52;57.13
36932;BME280;22847;42.654;23.370;2023-02-12T08:56:10;95718.81;;;4.57;57.00
36932;BME280;22847;42.654;23.370;2023-02-12T08:58:36;95710.03;;;4.28;57.61
36932;BME280;22847;42.654;23.370;2023-02-12T09:01:03;95534.22;;;3.23;57.53
36932;BME280;22847;42.654;23.370;2023-02-12T09:03:29;95702.78;;;4.19;57.64
36932;BME280;22847;42.654;23.370;2023-02-12T09:05:55;95716.16;;;4.27;57.66
36932;BME280;22847;42.654;23.370;2023-02-12T09:08:21;95744.97;;;4.35;57.78
36932;BME280;22847;42.654;23.370;2023-02-12T09:10:47;95766.78;;;4.30;58.47
36932;BME280;22847;42.654;23.370;2023-02-12T09:13:13;95712.31;;;3.86;58.52
36932;BME280;22847;42.654;23.370;2023-02-12T09:15:41;95740.28;;;4.26;58.77
36932;BME280;22847;42.654;23.370;2023-02-12T09:18:08;95749.38;;;4.33;58.70
36932;BME280;22847;42.654;23.370;2023-02-12T09:20:36;95740.34;;;4.25;58.97
36932;BME280;22847;42.654;23.370;2023-02-12T09:23:03;95714.44;;;4.11;59.11
36932;BME280;22847;42.654;23.370;2023-02-12T09:25:28;95682.78;;;3.91;59.19
36932;BME280;22847;42.654;23.370;2023-02-12T09:27:54;95759.63;;;4.35;59.29
36932;BME280;22847;42.654;23.370;2023-02-12T09:30:21;95749.28;;;4.35;59.05
36932;BME280;22847;42.654;23.370;2023-02-12T09:32:47;95692.69;;;4.15;58.77
36932;BME280;22847;42.654;23.370;2023-02-12T09:35:12;95708.38;;;4.12;59.09
36932;BME280;22847;42.654;23.370;2023-02-12T09:37:38;95745.34;;;4.28;59.45
36932;BME280;22847;42.654;23.370;2023-02-12T09:40:17;95048.94;;;-0.13;58.28
36932;BME280;22847;42.654;23.370;2023-02-12T09:43:16;95757.94;;;4.34;59.26
36932;BME280;22847;42.654;23.370;2023-02-12T09:48:58;95736.47;;;4.33;59.43
36932;BME280;22847;42.654;23.370;2023-02-12T09:51:25;95119.03;;;0.05;58.40
36932;BME280;22847;42.654;23.370;2023-02-12T09:54:02;95517.50;;;3.14;58.36
36932;BME280;22847;42.654;23.370;2023-02-12T09:56:29;95755.41;;;4.49;58.54
36932;BME280;22847;42.654;23.370;2023-02-12T09:58:59;95729.78;;;4.14;58.86
36932;BME280;22847;42.654;23.370;2023-02-12T10:01:26;95656.28;;;3.88;59.00
36932;BME280;22847;42.654;23.370;2023-02-12T10:03:52;95746.28;;;4.27;59.42
36932;BME280;22847;42.654;23.370;2023-02-12T10:06:25;95628.13;;;3.68;59.93
36932;BME280;22847;42.654;23.370;2023-02-12T10:12:32;95709.06;;;4.46;59.12
36932;BME280;22847;42.654;23.370;2023-02-12T10:18:03;95752.41;;;5.04;59.00
36932;BME280;22847;42.654;23.370;2023-02-12T10:26:12;95734.63;;;5.14;56.63
36932;BME280;22847;42.654;23.370;2023-02-12T10:28:41;95711.13;;;5.03;56.83
36932;BME280;22847;42.654;23.370;2023-02-12T10:31:29;95764.34;;;5.52;56.21
36932;BME280;22847;42.654;23.370;2023-02-12T10:33:53;95707.78;;;5.01;56.72
36932;BME280;22847;42.654;23.370;2023-02-12T10:36:37;95726.53;;;5.20;56.99
36932;BME280;22847;42.654;23.370;2023-02-12T10:39:14;95802.94;;;5.25;56.81
36932;BME280;22847;42.654;23.370;2023-02-12T10:44:17;95769.16;;;5.13;57.29
36932;BME280;22847;42.654;23.370;2023-02-12T10:46:42;95531.63;;;3.72;57.16
36932;BME280;22847;42.654;23.370;2023-02-12T10:49:14;95588.91;;;4.25;56.90
36932;BME280;22847;42.654;23.370;2023-02-12T10:56:59;95769.28;;;5.41;56.71
36932;BME280;22847;42.654;23.370;2023-02-12T10:59:30;95448.09;;;3.43;56.82
36932;BME280;22847;42.654;23.370;2023-02-12T11:01:55;95765.84;;;5.40;56.58
36932;BME280;22847;42.654;23.370;2023-02-12T11:04:26;95573.66;;;4.36;56.59
36932;BME280;22847;42.654;23.370;2023-02-12T11:07:04;95658.09;;;5.11;56.02
36932;BME280;22847;42.654;23.370;2023-02-12T11:09:35;95749.56;;;5.54;55.90
36932;BME280;22847;42.654;23.370;2023-02-12T11:12:01;95742.28;;;5.61;55.58
36932;BME280;22847;42.654;23.370;2023-02-12T11:14:28;95767.31;;;5.60;56.66
36932;BME280;22847;42.654;23.370;2023-02-12T11:16:58;95776.03;;;5.44;57.01
36932;BME280;22847;42.654;23.370;2023-02-12T11:19:30;95728.97;;;5.53;56.25
36932;BME280;22847;42.654;23.370;2023-02-12T11:22:06;95567.94;;;4.61;56.17
36932;BME280;22847;42.654;23.370;2023-02-12T11:24:35;95518.94;;;4.45;56.51
36932;BME280;22847;42.654;23.370;2023-02-12T11:29:44;95775.56;;;5.97;56.32
36932;BME280;22847;42.654;23.370;2023-02-12T11:32:18;95756.94;;;6.20;55.77
36932;BME280;22847;42.654;23.370;2023-02-12T11:37:32;95741.66;;;6.15;55.61
36932;BME280;22847;42.654;23.370;2023-02-12T11:40:01;95700.53;;;5.81;55.78
36932;BME280;22847;42.654;23.370;2023-02-12T11:42:28;95518.72;;;4.78;54.94
36932;BME280;22847;42.654;23.370;2023-02-12T11:44:58;95742.03;;;6.23;55.26
36932;BME280;22847;42.654;23.370;2023-02-12T11:47:25;95761.56;;;6.29;54.64
36932;BME280;22847;42.654;23.370;2023-02-12T11:50:24;95753.41;;;6.35;54.79
36932;BME280;22847;42.654;23.370;2023-02-12T11:52:53;95774.13;;;6.07;55.78
36932;BME280;22847;42.654;23.370;2023-02-12T11:55:23;95614.81;;;5.29;56.30
36932;BME280;22847;42.654;23.370;2023-02-12T11:57:51;95734.34;;;6.36;55.31
36932;BME280;22847;42.654;23.370;2023-02-12T12:00:22;95798.75;;;6.42;54.66
36932;BME280;22847;42.654;23.370;2023-02-12T12:03:01;95790.03;;;6.71;53.76
36932;BME280;22847;42.654;23.370;2023-02-12T12:05:36;95691.00;;;6.25;53.49
36932;BME280;22847;42.654;23.370;2023-02-12T12:08:06;95789.03;;;6.74;53.11
36932;BME280;22847;42.654;23.370;2023-02-12T12:10:41;95760.88;;;6.68;54.04
36932;BME280;22847;42.654;23.370;2023-02-12T12:13:13;95751.84;;;6.61;53.80
36932;BME280;22847;42.654;23.370;2023-02-12T12:15:46;95758.88;;;6.59;53.75
36932;BME280;22847;42.654;23.370;2023-02-12T12:18:43;95605.81;;;5.64;54.29
36932;BME280;22847;42.654;23.370;2023-02-12T12:21:35;95803.19;;;6.68;53.73
36932;BME280;22847;42.654;23.370;2023-02-12T12:24:10;95696.19;;;6.25;53.85
36932;BME280;22847;42.654;23.370;2023-02-12T12:26:40;95775.06;;;6.62;53.83
36932;BME280;22847;42.654;23.370;2023-02-12T12:29:23;95724.19;;;6.33;53.90
36932;BME280;22847;42.654;23.370;2023-02-12T12:31:57;95728.25;;;6.37;53.78
36932;BME280;22847;42.654;23.370;2023-02-12T12:34:26;95686.91;;;6.21;53.68
36932;BME280;22847;42.654;23.370;2023-02-12T12:48:37;95780.97;;;6.64;53.27
36932;BME280;22847;42.654;23.370;2023-02-12T12:54:01;95556.09;;;5.17;53.32
36932;BME280;22847;42.654;23.370;2023-02-12T13:17:48;95593.34;;;4.99;54.55
36932;BME280;22847;42.654;23.370;2023-02-12T13:20:18;95804.56;;;6.32;54.38
36932;BME280;22847;42.654;23.370;2023-02-12T13:22:58;95830.00;;;6.25;54.84
36932;BME280;22847;42.654;23.370;2023-02-12T13:25:38;95806.22;;;6.18;55.03
36932;BME280;22847;42.654;23.370;2023-02-12T13:28:13;95811.03;;;6.24;54.71
36932;BME280;22847;42.654;23.370;2023-02-12T13:30:45;95785.78;;;6.14;54.68
36932;BME280;22847;42.654;23.370;2023-02-12T13:33:25;95817.56;;;6.02;54.88
36932;BME280;22847;42.654;23.370;2023-02-12T13:35:54;95806.63;;;5.97;55.23
36932;BME280;22847;42.654;23.370;2023-02-12T13:38:25;95829.59;;;6.03;55.72
36932;BME280;22847;42.654;23.370;2023-02-12T13:40:58;95590.66;;;4.70;55.04
36932;BME280;22847;42.654;23.370;2023-02-12T13:48:53;95815.44;;;6.08;55.55
36932;BME280;22847;42.654;23.370;2023-02-12T13:56:51;95722.59;;;5.58;54.97
36932;BME280;22847;42.654;23.370;2023-02-12T14:01:57;95822.47;;;6.06;55.88
36932;BME280;22847;42.654;23.370;2023-02-12T14:07:04;95829.09;;;5.96;56.26
36932;BME280;22847;42.654;23.370;2023-02-12T14:12:12;95572.13;;;4.48;55.57
36932;BME280;22847;42.654;23.370;2023-02-12T14:24:59;95615.38;;;4.90;55.17
36932;BME280;22847;42.654;23.370;2023-02-12T14:27:47;95553.94;;;4.65;55.00
36932;BME280;22847;42.654;23.370;2023-02-12T14:37:52;95725.34;;;5.55;54.93
36932;BME280;22847;42.654;23.370;2023-02-12T14:43:00;95861.38;;;6.35;54.78
36932;BME280;22847;42.654;23.370;2023-02-12T14:45:34;95852.53;;;6.09;54.98
36932;BME280;22847;42.654;23.370;2023-02-12T14:48:00;95867.22;;;6.38;54.78
36932;BME280;22847;42.654;23.370;2023-02-12T14:50:36;95825.44;;;6.14;54.80
36932;BME280;22847;42.654;23.370;2023-02-12T14:53:06;95884.31;;;6.41;54.83
36932;BME280;22847;42.654;23.370;2023-02-12T14:55:37;95746.94;;;5.40;55.03
36932;BME280;22847;42.654;23.370;2023-02-12T14:58:16;95742.75;;;5.37;55.25
36932;BME280;22847;42.654;23.370;2023-02-12T15:00:44;95880.13;;;6.24;55.11
36932;BME280;22847;42.654;23.370;2023-02-12T15:05:40;95890.63;;;6.07;55.43
36932;BME280;22847;42.654;23.370;2023-02-12T15:08:18;95909.72;;;6.20;55.62
36932;BME280;22847;42.654;23.370;2023-02-12T15:10:54;95887.81;;;5.96;55.44
36932;BME280;22847;42.654;23.370;2023-02-12T15:15:51;95737.91;;;5.02;55.38
36932;BME280;22847;42.654;23.370;2023-02-12T15:21:20;95918.88;;;5.80;56.26
36932;BME280;22847;42.654;23.370;2023-02-12T15:23:58;95949.09;;;5.95;55.58
36932;BME280;22847;42.654;23.370;2023-02-12T15:26:26;95971.69;;;6.23;55.41
36932;BME280;22847;42.654;23.370;2023-02-12T15:28:52;95782.97;;;5.27;55.16
36932;BME280;22847;42.654;23.370;2023-02-12T15:31:20;95995.16;;;6.36;55.04
36932;BME280;22847;42.654;23.370;2023-02-12T15:33:49;95984.25;;;6.45;54.77
36932;BME280;22847;42.654;23.370;2023-02-12T15:36:19;95742.47;;;4.97;54.90
36932;BME280;22847;42.654;23.370;2023-02-12T15:38:48;95980.88;;;6.28;55.56
36932;BME280;22847;42.654;23.370;2023-02-12T15:41:25;95990.38;;;6.44;55.21
36932;BME280;22847;42.654;23.370;2023-02-12T15:43:51;95985.84;;;6.47;55.07
36932;BME280;22847;42.654;23.370;2023-02-12T15:46:17;95881.53;;;5.84;54.78
36932;BME280;22847;42.654;23.370;2023-02-12T15:48:43;95984.75;;;6.51;54.95
36932;BME280;22847;42.654;23.370;2023-02-12T15:51:34;96054.72;;;6.36;55.54